createdAt,value
2023-03-29T00:00:58.621Z,242.74
2023-03-29T00:01:58.615Z,246.87
2023-03-29T00:02:58.772Z,242.67
2023-03-29T00:04:00.435Z,241.56
2023-03-29T00:04:58.653Z,241.99
2023-03-29T00:05:58.656Z,243.70
2023-03-29T00:06:58.617Z,242.27
2023-03-29T00:07:58.628Z,243.08
2023-03-29T00:08:58.645Z,240.53
2023-03-29T00:09:58.641Z,237.54
2023-03-29T00:10:58.607Z,240.94
2023-03-29T00:11:58.608Z,240.70
2023-03-29T00:12:58.584Z,238.56
2023-03-29T00:13:58.614Z,239.88
2023-03-29T00:14:58.583Z,239.41
2023-03-29T00:15:58.581Z,236.45
2023-03-29T00:16:58.641Z,237.08
2023-03-29T00:17:58.626Z,235.63
2023-03-29T00:18:58.582Z,235.49
2023-03-29T00:19:58.544Z,234.44
2023-03-29T00:20:58.621Z,233.81
2023-03-29T00:21:58.558Z,234.59
2023-03-29T00:22:58.531Z,233.33
2023-03-29T00:23:58.525Z,234.43
2023-03-29T00:24:58.541Z,235.63
2023-03-29T00:25:58.502Z,235.58
2023-03-29T00:26:58.493Z,235.07
2023-03-29T00:27:58.485Z,234.17
2023-03-29T00:28:58.476Z,234.88
2023-03-29T00:29:58.511Z,234.09
2023-03-29T00:30:58.536Z,234.70
2023-03-29T00:31:58.630Z,236.40
2023-03-29T00:32:58.507Z,235.04
2023-03-29T00:33:58.543Z,235.09
2023-03-29T00:34:58.578Z,236.27
2023-03-29T00:35:58.665Z,240.59
2023-03-29T00:36:58.648Z,238.70
2023-03-29T00:37:58.744Z,238.58
2023-03-29T00:38:58.781Z,239.45
2023-03-29T00:39:58.818Z,239.84
2023-03-29T00:40:58.969Z,238.86
2023-03-29T00:41:58.935Z,237.28
2023-03-29T00:42:59.012Z,237.86
2023-03-29T00:43:59.056Z,237.72
2023-03-29T00:44:59.116Z,237.22
2023-03-29T00:45:59.213Z,237.18
2023-03-29T00:46:59.246Z,235.19
2023-03-29T00:47:59.328Z,236.33
2023-03-29T00:48:59.356Z,237.25
2023-03-29T00:49:59.433Z,238.51
2023-03-29T00:50:59.567Z,238.84
2023-03-29T00:51:59.531Z,240.69
2023-03-29T00:52:59.583Z,240.81
2023-03-29T00:53:59.634Z,242.19
2023-03-29T00:54:59.674Z,240.87
2023-03-29T00:55:59.744Z,241.73
2023-03-29T00:56:59.867Z,241.09
2023-03-29T00:57:59.870Z,240.36
2023-03-29T00:58:59.911Z,240.73
2023-03-29T00:59:59.974Z,241.07
2023-03-29T01:01:00.192Z,240.90
2023-03-29T01:02:00.177Z,240.61
2023-03-29T01:03:00.348Z,239.67
2023-03-29T01:04:00.282Z,240.60
2023-03-29T01:05:00.296Z,238.31
2023-03-29T01:06:00.329Z,239.98
2023-03-29T01:07:00.573Z,239.18
2023-03-29T01:08:00.468Z,237.74
2023-03-29T01:09:00.506Z,239.56
2023-03-29T01:10:00.553Z,236.40
2023-03-29T01:11:00.856Z,235.04
2023-03-29T01:12:00.711Z,234.62
2023-03-29T01:13:00.764Z,234.80
2023-03-29T01:14:00.845Z,238.24
2023-03-29T01:15:00.874Z,236.27
2023-03-29T01:16:00.986Z,238.11
2023-03-29T01:17:00.988Z,238.95
2023-03-29T01:18:01.050Z,241.19
2023-03-29T01:19:01.090Z,238.44
2023-03-29T01:20:01.136Z,241.68
2023-03-29T01:21:01.310Z,241.25
2023-03-29T01:22:01.293Z,240.89
2023-03-29T01:23:01.306Z,240.06
2023-03-29T01:24:01.358Z,240.18
2023-03-29T01:25:01.464Z,241.04
2023-03-29T01:26:01.489Z,238.67
2023-03-29T01:27:01.585Z,238.68
2023-03-29T01:28:01.641Z,236.78
2023-03-29T01:29:01.678Z,238.13
2023-03-29T01:30:01.732Z,235.62
2023-03-29T01:31:01.997Z,235.64
2023-03-29T01:32:01.904Z,239.06
2023-03-29T01:33:01.929Z,239.30
2023-03-29T01:34:01.954Z,237.62
2023-03-29T01:35:02.029Z,236.83
2023-03-29T01:36:02.122Z,241.54
2023-03-29T01:37:02.140Z,241.51
2023-03-29T01:38:02.206Z,237.24
2023-03-29T01:39:02.254Z,237.04
2023-03-29T01:40:02.309Z,236.71
2023-03-29T01:41:02.489Z,235.53
2023-03-29T01:42:02.446Z,238.99
2023-03-29T01:43:02.511Z,235.75
2023-03-29T01:44:02.548Z,236.07
2023-03-29T01:45:02.601Z,236.34
2023-03-29T01:46:02.649Z,235.47
2023-03-29T01:47:02.730Z,233.46
2023-03-29T01:48:02.853Z,230.91
2023-03-29T01:49:02.849Z,232.94
2023-03-29T01:50:02.869Z,229.86
2023-03-29T01:51:03.132Z,228.80
2023-03-29T01:52:03.001Z,228.57
2023-03-29T01:53:03.105Z,226.88
2023-03-29T01:54:03.145Z,226.23
2023-03-29T01:55:03.229Z,228.26
2023-03-29T01:56:03.256Z,231.22
2023-03-29T01:57:03.333Z,230.44
2023-03-29T01:58:03.368Z,228.46
2023-03-29T01:59:03.446Z,230.25
2023-03-29T02:00:03.464Z,227.75
2023-03-29T02:01:03.877Z,228.08
2023-03-29T02:02:03.583Z,228.16
2023-03-29T02:03:03.700Z,228.84
2023-03-29T02:04:03.727Z,229.96
2023-03-29T02:05:03.751Z,228.22
2023-03-29T02:06:03.808Z,229.63
2023-03-29T02:07:03.870Z,229.82
2023-03-29T02:08:03.925Z,230.08
2023-03-29T02:09:03.981Z,234.61
2023-03-29T02:10:04.049Z,232.84
2023-03-29T02:11:04.396Z,231.41
2023-03-29T02:12:04.163Z,231.82
2023-03-29T02:13:04.240Z,235.53
2023-03-29T02:14:04.297Z,233.27
2023-03-29T02:15:04.376Z,236.06
2023-03-29T02:16:04.485Z,235.03
2023-03-29T02:17:04.471Z,240.45
2023-03-29T02:18:04.652Z,237.50
2023-03-29T02:19:04.602Z,237.89
2023-03-29T02:20:04.668Z,238.93
2023-03-29T02:21:04.799Z,237.36
2023-03-29T02:22:04.816Z,237.23
2023-03-29T02:23:04.841Z,236.07
2023-03-29T02:24:04.935Z,235.81
2023-03-29T02:25:04.981Z,235.78
2023-03-29T02:26:05.050Z,234.44
2023-03-29T02:27:05.117Z,233.46
2023-03-29T02:28:05.174Z,232.19
2023-03-29T02:29:05.238Z,231.97
2023-03-29T02:30:05.299Z,231.17
2023-03-29T02:31:05.595Z,230.34
2023-03-29T02:32:05.413Z,229.61
2023-03-29T02:33:05.532Z,227.94
2023-03-29T02:34:05.530Z,229.36
2023-03-29T02:35:05.608Z,224.37
2023-03-29T02:36:05.725Z,228.32
2023-03-29T02:37:05.723Z,228.26
2023-03-29T02:38:05.802Z,228.81
2023-03-29T02:39:05.883Z,225.99
2023-03-29T02:40:05.905Z,229.54
2023-03-29T02:41:05.985Z,228.31
2023-03-29T02:42:06.046Z,227.27
2023-03-29T02:43:06.102Z,226.79
2023-03-29T02:44:06.203Z,228.63
2023-03-29T02:45:06.235Z,228.91
2023-03-29T02:46:06.328Z,229.59
2023-03-29T02:47:06.379Z,230.76
2023-03-29T02:48:06.555Z,231.05
2023-03-29T02:49:06.481Z,232.73
2023-03-29T02:50:06.540Z,232.32
2023-03-29T02:51:06.658Z,232.43
2023-03-29T02:52:06.684Z,235.77
2023-03-29T02:53:06.761Z,236.06
2023-03-29T02:54:06.801Z,239.40
2023-03-29T02:55:06.878Z,238.32
2023-03-29T02:56:06.943Z,238.11
2023-03-29T02:57:07.007Z,242.11
2023-03-29T02:58:07.081Z,243.37
2023-03-29T02:59:07.143Z,248.64
2023-03-29T03:00:07.187Z,249.23
2023-03-29T03:01:07.221Z,249.52
2023-03-29T03:02:07.301Z,250.00
2023-03-29T03:03:07.399Z,247.92
2023-03-29T03:04:07.443Z,247.81
2023-03-29T03:05:07.466Z,245.74
2023-03-29T03:06:07.477Z,247.20
2023-03-29T03:07:07.536Z,246.36
2023-03-29T03:08:07.570Z,245.95
2023-03-29T03:09:07.635Z,245.21
2023-03-29T03:10:07.670Z,247.62
2023-03-29T03:11:07.704Z,244.33
2023-03-29T03:12:07.743Z,244.10
2023-03-29T03:13:07.760Z,243.27
2023-03-29T03:14:07.846Z,247.00
2023-03-29T03:15:08.195Z,244.58
2023-03-29T03:16:08.273Z,242.42
2023-03-29T03:17:07.846Z,242.17
2023-03-29T03:18:07.880Z,241.92
2023-03-29T03:19:07.853Z,240.28
2023-03-29T03:20:07.853Z,239.67
2023-03-29T03:21:07.870Z,238.38
2023-03-29T03:22:07.874Z,236.91
2023-03-29T03:23:07.879Z,235.55
2023-03-29T03:24:07.879Z,234.53
2023-03-29T03:25:07.890Z,234.13
2023-03-29T03:26:07.894Z,234.99
2023-03-29T03:27:07.909Z,235.19
2023-03-29T03:28:07.898Z,235.94
2023-03-29T03:29:07.913Z,235.57
2023-03-29T03:30:07.882Z,236.97
2023-03-29T03:31:07.935Z,236.39
2023-03-29T03:32:08.007Z,235.97
2023-03-29T03:33:07.881Z,233.93
2023-03-29T03:34:07.889Z,234.10
2023-03-29T03:35:07.922Z,236.31
2023-03-29T03:36:07.995Z,237.73
2023-03-29T03:37:07.929Z,237.36
2023-03-29T03:38:07.978Z,237.84
2023-03-29T03:39:07.992Z,237.84
2023-03-29T03:40:08.055Z,236.95
2023-03-29T03:41:08.041Z,236.85
2023-03-29T03:42:08.582Z,235.26
2023-03-29T03:43:08.076Z,235.71
2023-03-29T03:44:08.125Z,236.80
2023-03-29T03:45:08.127Z,235.39
2023-03-29T03:46:08.183Z,235.69
2023-03-29T03:47:08.178Z,237.93
2023-03-29T03:48:08.281Z,239.16
2023-03-29T03:49:08.283Z,240.85
2023-03-29T03:50:08.356Z,241.75
2023-03-29T03:51:08.377Z,241.23
2023-03-29T03:52:08.419Z,242.62
2023-03-29T03:53:08.482Z,244.52
2023-03-29T03:54:08.594Z,242.26
2023-03-29T03:55:08.613Z,243.38
2023-03-29T03:56:08.686Z,246.05
2023-03-29T03:57:08.769Z,246.47
2023-03-29T03:58:08.786Z,246.01
2023-03-29T03:59:08.845Z,246.35
2023-03-29T04:00:08.926Z,248.49
2023-03-29T04:01:08.966Z,250.00
2023-03-29T04:02:09.070Z,246.67
2023-03-29T04:03:09.329Z,249.58
2023-03-29T04:04:09.231Z,249.87
2023-03-29T04:05:09.232Z,249.54
2023-03-29T04:06:09.308Z,248.95
2023-03-29T04:07:09.371Z,249.61
2023-03-29T04:08:09.424Z,248.46
2023-03-29T04:09:09.501Z,250.00
2023-03-29T04:10:09.564Z,249.95
2023-03-29T04:11:09.666Z,249.11
2023-03-29T04:12:09.665Z,249.38
2023-03-29T04:13:09.746Z,248.98
2023-03-29T04:14:09.797Z,250.00
2023-03-29T04:15:09.851Z,248.91
2023-03-29T04:16:09.968Z,248.49
2023-03-29T04:17:09.989Z,250.00
2023-03-29T04:18:10.109Z,249.01
2023-03-29T04:19:10.065Z,249.80
2023-03-29T04:20:10.157Z,249.64
2023-03-29T04:21:10.181Z,249.00
2023-03-29T04:22:10.226Z,247.42
2023-03-29T04:23:10.340Z,248.00
2023-03-29T04:24:10.360Z,249.78
2023-03-29T04:25:10.524Z,249.78
2023-03-29T04:26:10.487Z,247.99
2023-03-29T04:27:10.528Z,250.00
2023-03-29T04:28:10.583Z,249.05
2023-03-29T04:29:10.638Z,247.08
2023-03-29T04:30:10.713Z,250.00
2023-03-29T04:31:10.750Z,248.37
2023-03-29T04:32:10.812Z,247.55
2023-03-29T04:33:10.893Z,246.30
2023-03-29T04:34:10.920Z,248.78
2023-03-29T04:35:10.956Z,246.27
2023-03-29T04:36:11.065Z,249.19
2023-03-29T04:37:11.092Z,248.64
2023-03-29T04:38:11.150Z,248.42
2023-03-29T04:39:11.207Z,248.98
2023-03-29T04:40:11.242Z,248.30
2023-03-29T04:41:11.311Z,248.25
2023-03-29T04:42:11.369Z,247.43
2023-03-29T04:43:11.418Z,246.93
2023-03-29T04:44:11.513Z,245.25
2023-03-29T04:45:11.658Z,247.99
2023-03-29T04:46:11.646Z,246.50
2023-03-29T04:47:11.649Z,249.80
2023-03-29T04:48:11.795Z,249.04
2023-03-29T04:49:11.811Z,247.82
2023-03-29T04:50:11.817Z,248.59
2023-03-29T04:51:11.890Z,249.91
2023-03-29T04:52:11.924Z,250.00
2023-03-29T04:53:12.006Z,249.04
2023-03-29T04:54:12.100Z,248.60
2023-03-29T04:55:12.136Z,247.48
2023-03-29T04:56:12.211Z,246.33
2023-03-29T04:57:12.316Z,246.09
2023-03-29T04:58:12.337Z,246.62
2023-03-29T04:59:12.386Z,244.49
2023-03-29T05:00:12.453Z,243.77
2023-03-29T05:01:19.647Z,246.03
2023-03-29T05:02:12.551Z,246.18
2023-03-29T05:03:12.551Z,246.31
2023-03-29T05:04:12.976Z,246.49
2023-03-29T05:05:12.449Z,246.73
2023-03-29T05:06:12.466Z,247.10
2023-03-29T05:07:12.437Z,248.11
2023-03-29T05:08:12.449Z,247.64
2023-03-29T05:09:12.460Z,247.60
2023-03-29T05:10:12.433Z,248.48
2023-03-29T05:11:12.407Z,249.34
2023-03-29T05:12:12.411Z,249.10
2023-03-29T05:13:12.405Z,248.88
2023-03-29T05:14:12.391Z,249.75
2023-03-29T05:15:12.386Z,248.38
2023-03-29T05:16:12.421Z,249.80
2023-03-29T05:17:12.392Z,249.09
2023-03-29T05:18:12.414Z,249.66
2023-03-29T05:19:12.382Z,247.87
2023-03-29T05:20:12.348Z,246.69
2023-03-29T05:21:12.342Z,240.61
2023-03-29T05:22:12.386Z,223.69
2023-03-29T05:23:12.344Z,210.54
2023-03-29T05:24:12.331Z,217.07
2023-03-29T05:25:12.321Z,230.87
2023-03-29T05:26:12.326Z,240.11
2023-03-29T05:27:12.301Z,237.66
2023-03-29T05:28:12.313Z,234.58
2023-03-29T05:29:12.320Z,230.58
2023-03-29T05:30:12.336Z,223.57
2023-03-29T05:31:14.211Z,228.84
2023-03-29T05:32:12.394Z,241.13
2023-03-29T05:33:12.373Z,256.82
2023-03-29T05:34:12.345Z,250.00
2023-03-29T05:35:12.350Z,251.54
2023-03-29T05:36:12.398Z,248.53
2023-03-29T05:37:12.343Z,248.39
2023-03-29T05:38:12.311Z,249.51
2023-03-29T05:39:12.311Z,249.01
2023-03-29T05:40:12.323Z,249.88
2023-03-29T05:41:12.335Z,249.60
2023-03-29T05:42:12.300Z,250.10
2023-03-29T05:43:12.314Z,249.10
2023-03-29T05:44:12.281Z,247.68
2023-03-29T05:45:12.337Z,249.76
2023-03-29T05:46:19.460Z,249.71
2023-03-29T05:47:12.267Z,249.75
2023-03-29T05:48:12.268Z,247.78
2023-03-29T05:49:12.277Z,250.07
2023-03-29T05:50:12.260Z,252.03
2023-03-29T05:51:12.208Z,255.66
2023-03-29T05:52:12.250Z,249.09
2023-03-29T05:53:12.253Z,249.23
2023-03-29T05:54:12.210Z,250.00
2023-03-29T05:55:12.220Z,250.00
2023-03-29T05:56:12.229Z,249.74
2023-03-29T05:57:12.217Z,249.74
2023-03-29T05:58:12.239Z,249.85
2023-03-29T05:59:12.206Z,249.74
2023-03-29T06:00:12.174Z,250.00
2023-03-29T06:01:12.182Z,249.08
2023-03-29T06:02:12.271Z,249.90
2023-03-29T06:03:19.822Z,249.62
2023-03-29T06:04:13.331Z,249.83
2023-03-29T06:05:12.139Z,250.65
2023-03-29T06:06:12.162Z,252.37
2023-03-29T06:07:12.210Z,255.26
2023-03-29T06:08:12.129Z,261.06
2023-03-29T06:09:12.170Z,251.81
2023-03-29T06:10:12.109Z,250.00
2023-03-29T06:11:12.147Z,248.81
2023-03-29T06:12:12.124Z,249.09
2023-03-29T06:13:12.102Z,249.29
2023-03-29T06:14:12.074Z,250.00
2023-03-29T06:15:12.148Z,249.86
2023-03-29T06:16:12.099Z,249.80
2023-03-29T06:17:12.147Z,249.67
2023-03-29T06:18:12.170Z,250.00
2023-03-29T06:19:12.063Z,250.00
2023-03-29T06:20:12.071Z,250.00
2023-03-29T06:21:12.625Z,249.15
2023-03-29T06:22:14.754Z,249.84
2023-03-29T06:23:12.017Z,249.64
2023-03-29T06:24:12.021Z,249.74
2023-03-29T06:25:12.426Z,249.33
2023-03-29T06:26:12.136Z,249.60
2023-03-29T06:27:12.022Z,249.03
2023-03-29T06:28:12.055Z,250.00
2023-03-29T06:29:12.631Z,249.77
2023-03-29T06:30:12.023Z,249.66
2023-03-29T06:31:12.016Z,249.68
2023-03-29T06:32:12.002Z,248.70
2023-03-29T06:33:11.951Z,249.16
2023-03-29T06:34:11.975Z,249.89
2023-03-29T06:35:12.306Z,249.66
2023-03-29T06:36:12.011Z,249.59
2023-03-29T06:37:11.964Z,249.50
2023-03-29T06:38:11.941Z,245.25
2023-03-29T06:39:11.954Z,245.40
2023-03-29T06:40:12.366Z,241.22
2023-03-29T06:41:12.046Z,239.89
2023-03-29T06:42:20.649Z,241.42
2023-03-29T06:43:12.977Z,241.48
2023-03-29T06:44:11.922Z,241.51
2023-03-29T06:45:12.372Z,241.58
2023-03-29T06:46:12.145Z,242.14
2023-03-29T06:47:11.886Z,242.04
2023-03-29T06:48:11.929Z,243.03
2023-03-29T06:49:11.880Z,243.42
2023-03-29T06:50:11.915Z,244.85
2023-03-29T06:51:11.884Z,245.10
2023-03-29T06:52:11.848Z,245.78
2023-03-29T06:53:11.836Z,247.06
2023-03-29T06:54:11.835Z,246.75
2023-03-29T06:55:11.839Z,246.96
2023-03-29T06:56:11.804Z,248.51
2023-03-29T06:57:11.893Z,248.27
2023-03-29T06:58:11.898Z,249.07
2023-03-29T06:59:11.805Z,249.27
2023-03-29T07:00:11.840Z,249.07
2023-03-29T07:01:11.856Z,245.57
2023-03-29T07:02:11.799Z,240.24
2023-03-29T07:03:11.814Z,235.96
2023-03-29T07:04:11.884Z,224.95
2023-03-29T07:05:11.776Z,223.58
2023-03-29T07:06:11.780Z,228.75
2023-03-29T07:07:11.741Z,228.76
2023-03-29T07:08:11.809Z,225.77
2023-03-29T07:09:11.847Z,223.65
2023-03-29T07:10:11.908Z,224.11
2023-03-29T07:11:11.877Z,219.32
2023-03-29T07:12:11.929Z,222.15
2023-03-29T07:13:12.080Z,220.67
2023-03-29T07:14:11.982Z,211.32
2023-03-29T07:15:11.891Z,211.02
2023-03-29T07:16:11.885Z,204.56
2023-03-29T07:17:11.870Z,205.99
2023-03-29T07:18:11.929Z,204.17
2023-03-29T07:19:11.892Z,200.04
2023-03-29T07:20:11.941Z,199.01
2023-03-29T07:21:11.954Z,197.21
2023-03-29T07:22:11.945Z,206.67
2023-03-29T07:23:11.996Z,205.50
2023-03-29T07:24:12.007Z,204.73
2023-03-29T07:25:12.033Z,206.42
2023-03-29T07:26:12.097Z,200.50
2023-03-29T07:27:12.053Z,197.12
2023-03-29T07:28:12.045Z,198.29
2023-03-29T07:29:12.099Z,203.59
2023-03-29T07:30:12.342Z,205.28
2023-03-29T07:31:12.169Z,205.19
2023-03-29T07:32:12.346Z,202.67
2023-03-29T07:33:12.364Z,199.87
2023-03-29T07:34:12.192Z,202.24
2023-03-29T07:35:12.226Z,212.41
2023-03-29T07:36:12.246Z,214.63
2023-03-29T07:37:12.289Z,207.09
2023-03-29T07:38:12.291Z,200.81
2023-03-29T07:39:12.332Z,200.21
2023-03-29T07:40:12.383Z,193.90
2023-03-29T07:41:12.427Z,192.11
2023-03-29T07:42:12.499Z,189.18
2023-03-29T07:43:12.554Z,204.75
2023-03-29T07:44:12.589Z,212.76
2023-03-29T07:45:12.860Z,213.76
2023-03-29T07:46:12.688Z,215.65
2023-03-29T07:47:12.648Z,216.90
2023-03-29T07:48:12.697Z,217.32
2023-03-29T07:49:12.640Z,218.29
2023-03-29T07:50:12.660Z,218.53
2023-03-29T07:51:12.669Z,219.68
2023-03-29T07:52:12.730Z,219.64
2023-03-29T07:53:12.753Z,219.47
2023-03-29T07:54:12.789Z,219.31
2023-03-29T07:55:12.851Z,218.22
2023-03-29T07:56:12.884Z,217.63
2023-03-29T07:57:13.013Z,217.55
2023-03-29T07:58:13.003Z,217.05
2023-03-29T07:59:13.097Z,216.67
2023-03-29T08:00:13.131Z,216.60
2023-03-29T08:01:15.824Z,216.31
2023-03-29T08:02:13.223Z,216.34
2023-03-29T08:03:13.344Z,215.42
2023-03-29T08:04:13.256Z,214.41
2023-03-29T08:05:13.405Z,214.21
2023-03-29T08:06:13.260Z,213.23
2023-03-29T08:07:13.181Z,212.44
2023-03-29T08:08:13.160Z,212.94
2023-03-29T08:09:13.145Z,212.37
2023-03-29T08:10:13.173Z,211.56
2023-03-29T08:11:13.148Z,210.86
2023-03-29T08:12:13.140Z,209.83
2023-03-29T08:13:13.147Z,209.90
2023-03-29T08:14:13.127Z,210.25
2023-03-29T08:15:13.144Z,209.29
2023-03-29T08:16:13.259Z,209.29
2023-03-29T08:17:13.170Z,207.75
2023-03-29T08:18:13.190Z,207.83
2023-03-29T08:19:13.185Z,206.99
2023-03-29T08:20:13.414Z,206.69
2023-03-29T08:21:13.872Z,206.86
2023-03-29T08:22:13.136Z,206.11
2023-03-29T08:23:13.183Z,205.30
2023-03-29T08:24:13.261Z,205.35
2023-03-29T08:25:13.311Z,204.51
2023-03-29T08:26:13.383Z,203.69
2023-03-29T08:27:13.442Z,203.85
2023-03-29T08:28:13.492Z,203.58
2023-03-29T08:29:13.530Z,203.09
2023-03-29T08:30:13.652Z,203.08
2023-03-29T08:31:13.673Z,202.78
2023-03-29T08:32:13.735Z,201.81
2023-03-29T08:33:13.822Z,202.04
2023-03-29T08:34:13.852Z,201.46
2023-03-29T08:35:13.918Z,201.55
2023-03-29T08:36:13.986Z,200.87
2023-03-29T08:37:14.033Z,197.03
2023-03-29T08:38:14.073Z,194.42
2023-03-29T08:39:14.168Z,182.91
2023-03-29T08:40:14.389Z,169.14
2023-03-29T08:41:14.273Z,158.63
2023-03-29T08:42:14.241Z,153.01
2023-03-29T08:43:14.284Z,151.53
2023-03-29T08:44:14.228Z,153.87
2023-03-29T08:45:14.294Z,156.39
2023-03-29T08:46:14.293Z,156.73
2023-03-29T08:47:14.289Z,154.85
2023-03-29T08:48:14.279Z,144.56
2023-03-29T08:49:14.277Z,142.76
2023-03-29T08:50:14.337Z,140.24
2023-03-29T08:51:14.385Z,135.22
2023-03-29T08:52:14.394Z,138.89
2023-03-29T08:53:14.446Z,139.05
2023-03-29T08:54:14.500Z,143.07
2023-03-29T08:55:14.908Z,145.99
2023-03-29T08:56:14.575Z,151.30
2023-03-29T08:57:14.667Z,145.52
2023-03-29T08:58:14.633Z,144.31
2023-03-29T08:59:14.693Z,139.53
2023-03-29T09:00:14.744Z,138.67
2023-03-29T09:01:14.791Z,136.93
2023-03-29T09:02:15.062Z,135.82
2023-03-29T09:03:14.942Z,135.62
2023-03-29T09:04:14.937Z,130.17
2023-03-29T09:05:14.987Z,125.33
2023-03-29T09:06:15.049Z,125.56
2023-03-29T09:07:15.055Z,122.05
2023-03-29T09:08:15.129Z,117.64
2023-03-29T09:09:15.204Z,122.12
2023-03-29T09:10:15.293Z,121.97
2023-03-29T09:11:15.392Z,122.32
2023-03-29T09:12:15.363Z,124.88
2023-03-29T09:13:15.461Z,123.72
2023-03-29T09:14:15.452Z,124.06
2023-03-29T09:15:15.544Z,123.34
2023-03-29T09:16:15.563Z,120.75
2023-03-29T09:17:15.565Z,121.01
2023-03-29T09:18:15.638Z,117.40
2023-03-29T09:19:15.610Z,115.75
2023-03-29T09:20:15.677Z,110.70
2023-03-29T09:21:15.689Z,109.04
2023-03-29T09:22:15.637Z,104.65
2023-03-29T09:23:15.625Z,101.81
2023-03-29T09:24:15.650Z,96.78
2023-03-29T09:25:15.633Z,93.82
2023-03-29T09:26:15.645Z,96.91
2023-03-29T09:27:15.653Z,100.79
2023-03-29T09:28:15.653Z,99.09
2023-03-29T09:29:15.676Z,97.16
2023-03-29T09:30:15.887Z,95.44
2023-03-29T09:31:15.733Z,95.76
2023-03-29T09:32:15.739Z,95.62
2023-03-29T09:33:15.748Z,94.24
2023-03-29T09:34:15.927Z,93.74
2023-03-29T09:35:15.894Z,93.73
2023-03-29T09:36:15.856Z,94.44
2023-03-29T09:37:15.824Z,93.78
2023-03-29T09:38:15.881Z,94.53
2023-03-29T09:39:15.833Z,93.46
2023-03-29T09:40:15.892Z,90.02
2023-03-29T09:41:15.893Z,91.15
2023-03-29T09:42:15.912Z,77.54
2023-03-29T09:43:15.951Z,66.96
2023-03-29T09:44:28.165Z,45.88
2023-03-29T09:45:17.060Z,46.86
2023-03-29T09:46:16.235Z,51.19
2023-03-29T09:47:15.994Z,63.11
2023-03-29T09:48:15.949Z,86.99
2023-03-29T09:49:17.313Z,111.94
2023-03-29T09:50:29.582Z,115.97
2023-03-29T09:51:16.955Z,116.23
2023-03-29T09:52:15.984Z,117.30
2023-03-29T09:53:15.920Z,120.30
2023-03-29T09:54:15.914Z,126.94
2023-03-29T09:55:15.904Z,137.93
2023-03-29T09:56:15.912Z,143.23
2023-03-29T09:57:15.989Z,147.23
2023-03-29T09:58:15.912Z,154.17
2023-03-29T09:59:15.912Z,157.73
2023-03-29T10:00:16.015Z,162.11
2023-03-29T10:01:16.024Z,167.88
2023-03-29T10:02:16.935Z,173.10
2023-03-29T10:03:15.855Z,178.16
2023-03-29T10:04:15.992Z,179.96
2023-03-29T10:05:16.146Z,183.97
2023-03-29T10:06:15.882Z,188.03
2023-03-29T10:07:15.924Z,189.64
2023-03-29T10:08:18.965Z,193.88
2023-03-29T10:09:16.036Z,197.80
2023-03-29T10:10:17.046Z,198.05
2023-03-29T10:11:15.959Z,198.98
2023-03-29T10:12:16.035Z,200.95
2023-03-29T10:13:15.966Z,204.28
2023-03-29T10:14:15.911Z,210.08
2023-03-29T10:15:26.723Z,213.14
2023-03-29T10:16:17.038Z,213.29
2023-03-29T10:17:15.886Z,214.01
2023-03-29T10:18:15.957Z,215.62
2023-03-29T10:19:15.915Z,218.11
2023-03-29T10:20:15.882Z,223.27
2023-03-29T10:21:16.002Z,224.12
2023-03-29T10:22:15.869Z,226.62
2023-03-29T10:23:15.838Z,228.80
2023-03-29T10:24:15.837Z,229.78
2023-03-29T10:25:15.838Z,230.18
2023-03-29T10:26:15.825Z,232.99
2023-03-29T10:27:15.920Z,233.30
2023-03-29T10:28:15.806Z,235.21
2023-03-29T10:29:15.840Z,236.28
2023-03-29T10:30:15.821Z,238.88
2023-03-29T10:31:17.812Z,240.76
2023-03-29T10:32:15.872Z,241.33
2023-03-29T10:33:15.782Z,243.48
2023-03-29T10:34:15.790Z,241.96
2023-03-29T10:35:15.801Z,237.49
2023-03-29T10:36:15.794Z,220.81
2023-03-29T10:37:15.765Z,222.84
2023-03-29T10:38:15.802Z,204.78
2023-03-29T10:39:15.886Z,188.98
2023-03-29T10:40:15.896Z,194.00
2023-03-29T10:41:15.941Z,202.77
2023-03-29T10:42:15.952Z,215.78
2023-03-29T10:43:15.988Z,222.48
2023-03-29T10:44:16.066Z,203.69
2023-03-29T10:45:16.107Z,211.26
2023-03-29T10:46:16.214Z,218.68
2023-03-29T10:47:16.268Z,222.42
2023-03-29T10:48:16.295Z,221.61
2023-03-29T10:49:16.341Z,218.34
2023-03-29T10:50:16.424Z,216.46
2023-03-29T10:51:16.934Z,216.58
2023-03-29T10:52:16.530Z,214.58
2023-03-29T10:53:16.590Z,213.03
2023-03-29T10:54:16.603Z,212.58
2023-03-29T10:55:16.677Z,210.55
2023-03-29T10:56:16.760Z,209.43
2023-03-29T10:57:16.882Z,209.03
2023-03-29T10:58:16.822Z,206.83
2023-03-29T10:59:16.898Z,206.75
2023-03-29T11:00:16.938Z,206.14
2023-03-29T11:01:17.004Z,204.62
2023-03-29T11:02:17.110Z,205.52
2023-03-29T11:03:19.471Z,205.03
2023-03-29T11:04:17.064Z,206.79
2023-03-29T11:05:17.049Z,206.60
2023-03-29T11:06:17.464Z,205.55
2023-03-29T11:07:17.044Z,204.39
2023-03-29T11:08:17.034Z,202.89
2023-03-29T11:09:17.031Z,203.01
2023-03-29T11:10:17.022Z,203.45
2023-03-29T11:11:16.996Z,202.87
2023-03-29T11:12:16.999Z,203.14
2023-03-29T11:13:17.038Z,201.24
2023-03-29T11:14:17.009Z,200.77
2023-03-29T11:15:16.971Z,200.58
2023-03-29T11:16:17.034Z,200.66
2023-03-29T11:17:16.967Z,198.63
2023-03-29T11:18:16.959Z,197.42
2023-03-29T11:19:16.952Z,196.82
2023-03-29T11:20:16.981Z,195.26
2023-03-29T11:21:16.953Z,194.44
2023-03-29T11:22:16.921Z,193.20
2023-03-29T11:23:16.930Z,192.24
2023-03-29T11:24:16.939Z,192.92
2023-03-29T11:25:16.926Z,192.40
2023-03-29T11:26:17.004Z,191.88
2023-03-29T11:27:16.894Z,185.34
2023-03-29T11:28:16.920Z,183.66
2023-03-29T11:29:16.872Z,164.51
2023-03-29T11:30:16.897Z,150.68
2023-03-29T11:31:17.032Z,162.74
2023-03-29T11:32:16.889Z,159.80
2023-03-29T11:33:16.901Z,164.73
2023-03-29T11:34:16.934Z,170.17
2023-03-29T11:35:16.919Z,171.45
2023-03-29T11:36:17.014Z,177.58
2023-03-29T11:37:16.962Z,177.58
2023-03-29T11:38:17.002Z,177.44
2023-03-29T11:39:17.046Z,177.64
2023-03-29T11:40:17.099Z,176.52
2023-03-29T11:41:17.169Z,175.68
2023-03-29T11:42:17.240Z,176.49
2023-03-29T11:43:17.281Z,176.71
2023-03-29T11:44:17.305Z,176.54
2023-03-29T11:45:17.381Z,177.06
2023-03-29T11:46:17.481Z,175.83
2023-03-29T11:47:17.528Z,176.42
2023-03-29T11:48:17.571Z,175.65
2023-03-29T11:49:17.627Z,175.82
2023-03-29T11:50:17.702Z,177.06
2023-03-29T11:51:17.851Z,176.26
2023-03-29T11:52:17.856Z,177.52
2023-03-29T11:53:18.141Z,177.31
2023-03-29T11:54:17.935Z,174.71
2023-03-29T11:55:17.993Z,175.70
2023-03-29T11:56:18.066Z,175.80
2023-03-29T11:57:18.155Z,174.73
2023-03-29T11:58:18.167Z,174.65
2023-03-29T11:59:18.232Z,171.85
2023-03-29T12:00:18.272Z,170.89
2023-03-29T12:01:18.334Z,170.85
2023-03-29T12:02:18.425Z,171.42
2023-03-29T12:03:18.548Z,170.34
2023-03-29T12:04:18.504Z,170.79
2023-03-29T12:05:18.558Z,170.49
2023-03-29T12:06:18.593Z,168.89
2023-03-29T12:07:18.667Z,167.95
2023-03-29T12:08:18.721Z,162.39
2023-03-29T12:09:18.799Z,123.61
2023-03-29T12:10:18.804Z,104.09
2023-03-29T12:11:18.762Z,96.07
2023-03-29T12:12:18.829Z,94.44
2023-03-29T12:13:18.784Z,88.42
2023-03-29T12:14:18.815Z,88.12
2023-03-29T12:15:18.824Z,90.07
2023-03-29T12:16:18.857Z,103.38
2023-03-29T12:17:18.866Z,128.10
2023-03-29T12:18:18.912Z,137.84
2023-03-29T12:19:18.914Z,137.63
2023-03-29T12:20:18.929Z,134.02
2023-03-29T12:21:18.968Z,130.14
2023-03-29T12:22:18.980Z,150.82
2023-03-29T12:23:19.022Z,163.11
2023-03-29T12:24:19.034Z,173.15
2023-03-29T12:25:20.735Z,173.81
2023-03-29T12:26:19.006Z,179.48
2023-03-29T12:27:18.991Z,182.68
2023-03-29T12:28:19.003Z,189.35
2023-03-29T12:29:18.981Z,192.57
2023-03-29T12:30:18.996Z,197.83